sensor_id;sensor_type;location;lat;lon;timestamp;P1;durP1;ratioP1;P2;durP2;ratioP2
51806;SDS011;37865;51.304;9.536;2023-08-21T00:01:19;11.30;;;9.68;;
51806;SDS011;37865;51.304;9.536;2023-08-21T00:03:44;16.70;;;10.98;;
51806;SDS011;37865;51.304;9.536;2023-08-21T00:06:10;16.80;;;9.73;;
51806;SDS011;37865;51.304;9.536;2023-08-21T00:08:36;10.32;;;9.10;;
51806;SDS011;37865;51.304;9.536;2023-08-21T00:11:01;13.02;;;10.05;;
51806;SDS011;37865;51.304;9.536;2023-08-21T00:13:27;13.48;;;10.63;;
51806;SDS011;37865;51.304;9.536;2023-08-21T00:15:52;15.10;;;11.65;;
51806;SDS011;37865;51.304;9.536;2023-08-21T00:18:19;13.57;;;10.00;;
51806;SDS011;37865;51.304;9.536;2023-08-21T00:20:44;11.95;;;9.85;;
51806;SDS011;37865;51.304;9.536;2023-08-21T00:23:09;14.50;;;10.10;;
51806;SDS011;37865;51.304;9.536;2023-08-21T00:25:35;16.65;;;11.13;;
51806;SDS011;37865;51.304;9.536;2023-08-21T00:28:00;14.80;;;10.90;;
51806;SDS011;37865;51.304;9.536;2023-08-21T00:30:26;15.73;;;10.15;;
51806;SDS011;37865;51.304;9.536;2023-08-21T00:32:51;14.18;;;10.35;;
51806;SDS011;37865;51.304;9.536;2023-08-21T00:35:16;18.92;;;10.07;;
51806;SDS011;37865;51.304;9.536;2023-08-21T00:37:42;11.88;;;10.68;;
51806;SDS011;37865;51.304;9.536;2023-08-21T00:40:07;16.00;;;10.85;;
51806;SDS011;37865;51.304;9.536;2023-08-21T00:42:33;10.68;;;8.77;;
51806;SDS011;37865;51.304;9.536;2023-08-21T00:44:58;15.30;;;9.55;;
51806;SDS011;37865;51.304;9.536;2023-08-21T00:47:23;14.40;;;9.57;;
51806;SDS011;37865;51.304;9.536;2023-08-21T00:49:50;16.35;;;10.63;;
51806;SDS011;37865;51.304;9.536;2023-08-21T00:52:15;15.65;;;10.30;;
51806;SDS011;37865;51.304;9.536;2023-08-21T00:54:42;14.00;;;10.98;;
51806;SDS011;37865;51.304;9.536;2023-08-21T00:57:08;14.43;;;11.07;;
51806;SDS011;37865;51.304;9.536;2023-08-21T00:59:35;21.05;;;9.23;;
51806;SDS011;37865;51.304;9.536;2023-08-21T01:02:00;14.35;;;9.52;;
51806;SDS011;37865;51.304;9.536;2023-08-21T01:04:26;20.10;;;11.98;;
51806;SDS011;37865;51.304;9.536;2023-08-21T01:06:51;13.48;;;9.50;;
51806;SDS011;37865;51.304;9.536;2023-08-21T01:12:09;14.82;;;9.30;;
51806;SDS011;37865;51.304;9.536;2023-08-21T01:14:52;13.77;;;10.48;;
51806;SDS011;37865;51.304;9.536;2023-08-21T01:17:18;14.45;;;10.93;;
51806;SDS011;37865;51.304;9.536;2023-08-21T01:19:46;13.68;;;10.80;;
51806;SDS011;37865;51.304;9.536;2023-08-21T01:22:13;14.52;;;11.00;;
51806;SDS011;37865;51.304;9.536;2023-08-21T01:24:39;17.98;;;10.88;;
51806;SDS011;37865;51.304;9.536;2023-08-21T01:27:05;9.48;;;8.27;;
51806;SDS011;37865;51.304;9.536;2023-08-21T01:29:30;11.95;;;8.38;;
51806;SDS011;37865;51.304;9.536;2023-08-21T01:34:48;22.55;;;9.93;;
51806;SDS011;37865;51.304;9.536;2023-08-21T01:37:16;12.82;;;9.32;;
51806;SDS011;37865;51.304;9.536;2023-08-21T01:39:42;13.27;;;8.75;;
51806;SDS011;37865;51.304;9.536;2023-08-21T01:42:07;12.30;;;9.65;;
51806;SDS011;37865;51.304;9.536;2023-08-21T01:44:33;21.77;;;9.38;;
51806;SDS011;37865;51.304;9.536;2023-08-21T01:46:58;13.02;;;7.97;;
51806;SDS011;37865;51.304;9.536;2023-08-21T01:49:23;10.73;;;8.27;;
51806;SDS011;37865;51.304;9.536;2023-08-21T01:51:49;11.63;;;7.95;;
51806;SDS011;37865;51.304;9.536;2023-08-21T01:54:14;12.75;;;9.00;;
51806;SDS011;37865;51.304;9.536;2023-08-21T01:56:39;9.75;;;8.57;;
51806;SDS011;37865;51.304;9.536;2023-08-21T01:59:04;13.00;;;7.82;;
51806;SDS011;37865;51.304;9.536;2023-08-21T02:01:31;11.30;;;8.07;;
51806;SDS011;37865;51.304;9.536;2023-08-21T02:03:57;13.80;;;7.97;;
51806;SDS011;37865;51.304;9.536;2023-08-21T02:06:22;11.38;;;7.43;;
51806;SDS011;37865;51.304;9.536;2023-08-21T02:08:48;11.73;;;7.13;;
51806;SDS011;37865;51.304;9.536;2023-08-21T02:11:14;14.32;;;7.97;;
51806;SDS011;37865;51.304;9.536;2023-08-21T02:13:39;12.77;;;7.10;;
51806;SDS011;37865;51.304;9.536;2023-08-21T02:16:04;13.65;;;7.10;;
51806;SDS011;37865;51.304;9.536;2023-08-21T02:18:30;27.25;;;7.65;;
51806;SDS011;37865;51.304;9.536;2023-08-21T02:20:55;10.65;;;7.18;;
51806;SDS011;37865;51.304;9.536;2023-08-21T02:23:20;11.27;;;6.90;;
51806;SDS011;37865;51.304;9.536;2023-08-21T02:25:46;12.93;;;7.30;;
51806;SDS011;37865;51.304;9.536;2023-08-21T02:28:11;8.82;;;6.03;;
51806;SDS011;37865;51.304;9.536;2023-08-21T02:30:39;16.50;;;6.35;;
51806;SDS011;37865;51.304;9.536;2023-08-21T02:33:06;10.95;;;6.80;;
51806;SDS011;37865;51.304;9.536;2023-08-21T02:35:31;13.27;;;7.40;;
51806;SDS011;37865;51.304;9.536;2023-08-21T02:37:56;11.95;;;6.28;;
51806;SDS011;37865;51.304;9.536;2023-08-21T02:40:22;10.43;;;7.38;;
51806;SDS011;37865;51.304;9.536;2023-08-21T02:42:47;9.65;;;6.95;;
51806;SDS011;37865;51.304;9.536;2023-08-21T02:45:12;9.93;;;6.43;;
51806;SDS011;37865;51.304;9.536;2023-08-21T02:47:38;7.20;;;5.90;;
51806;SDS011;37865;51.304;9.536;2023-08-21T02:50:04;10.40;;;7.55;;
51806;SDS011;37865;51.304;9.536;2023-08-21T02:52:32;12.32;;;6.13;;
51806;SDS011;37865;51.304;9.536;2023-08-21T02:54:58;14.73;;;7.38;;
51806;SDS011;37865;51.304;9.536;2023-08-21T02:57:24;13.02;;;8.43;;
51806;SDS011;37865;51.304;9.536;2023-08-21T02:59:50;12.90;;;6.43;;
51806;SDS011;37865;51.304;9.536;2023-08-21T03:02:15;6.30;;;5.68;;
51806;SDS011;37865;51.304;9.536;2023-08-21T03:04:40;9.32;;;7.50;;
51806;SDS011;37865;51.304;9.536;2023-08-21T03:07:06;12.13;;;7.30;;
51806;SDS011;37865;51.304;9.536;2023-08-21T03:09:31;16.65;;;7.43;;
51806;SDS011;37865;51.304;9.536;2023-08-21T03:11:56;12.82;;;6.90;;
51806;SDS011;37865;51.304;9.536;2023-08-21T03:14:22;9.38;;;7.18;;
51806;SDS011;37865;51.304;9.536;2023-08-21T03:16:47;17.05;;;6.80;;
51806;SDS011;37865;51.304;9.536;2023-08-21T03:19:12;15.43;;;8.20;;
51806;SDS011;37865;51.304;9.536;2023-08-21T03:21:38;14.65;;;8.65;;
51806;SDS011;37865;51.304;9.536;2023-08-21T03:24:03;11.48;;;8.23;;
51806;SDS011;37865;51.304;9.536;2023-08-21T03:26:28;16.42;;;8.95;;
51806;SDS011;37865;51.304;9.536;2023-08-21T03:28:54;13.25;;;7.30;;
51806;SDS011;37865;51.304;9.536;2023-08-21T03:31:19;13.38;;;8.68;;
51806;SDS011;37865;51.304;9.536;2023-08-21T03:33:44;8.85;;;6.95;;
51806;SDS011;37865;51.304;9.536;2023-08-21T03:36:10;14.38;;;8.32;;
51806;SDS011;37865;51.304;9.536;2023-08-21T03:38:35;10.95;;;8.05;;
51806;SDS011;37865;51.304;9.536;2023-08-21T03:41:00;11.20;;;8.48;;
51806;SDS011;37865;51.304;9.536;2023-08-21T03:43:26;13.75;;;8.15;;
51806;SDS011;37865;51.304;9.536;2023-08-21T03:45:52;13.07;;;8.88;;
51806;SDS011;37865;51.304;9.536;2023-08-21T03:48:17;12.30;;;8.25;;
51806;SDS011;37865;51.304;9.536;2023-08-21T03:50:42;17.00;;;9.68;;
51806;SDS011;37865;51.304;9.536;2023-08-21T03:53:08;11.13;;;9.60;;
51806;SDS011;37865;51.304;9.536;2023-08-21T03:55:33;21.40;;;10.85;;
51806;SDS011;37865;51.304;9.536;2023-08-21T03:57:59;13.30;;;9.65;;
51806;SDS011;37865;51.304;9.536;2023-08-21T04:00:25;17.65;;;9.85;;
51806;SDS011;37865;51.304;9.536;2023-08-21T04:02:50;18.25;;;7.85;;
51806;SDS011;37865;51.304;9.536;2023-08-21T04:05:16;12.27;;;9.40;;
51806;SDS011;37865;51.304;9.536;2023-08-21T04:07:41;15.90;;;9.80;;
51806;SDS011;37865;51.304;9.536;2023-08-21T04:10:06;11.13;;;8.75;;
51806;SDS011;37865;51.304;9.536;2023-08-21T04:12:32;13.02;;;9.40;;
51806;SDS011;37865;51.304;9.536;2023-08-21T04:14:57;13.43;;;9.80;;
51806;SDS011;37865;51.304;9.536;2023-08-21T04:17:23;14.52;;;9.95;;
51806;SDS011;37865;51.304;9.536;2023-08-21T04:19:49;12.20;;;9.05;;
51806;SDS011;37865;51.304;9.536;2023-08-21T04:22:14;13.38;;;9.57;;
51806;SDS011;37865;51.304;9.536;2023-08-21T04:24:40;17.90;;;9.45;;
51806;SDS011;37865;51.304;9.536;2023-08-21T04:27:06;11.70;;;8.98;;
51806;SDS011;37865;51.304;9.536;2023-08-21T04:29:31;10.68;;;9.68;;
51806;SDS011;37865;51.304;9.536;2023-08-21T04:31:56;15.63;;;9.45;;
51806;SDS011;37865;51.304;9.536;2023-08-21T04:34:21;11.70;;;9.20;;
51806;SDS011;37865;51.304;9.536;2023-08-21T04:36:47;15.60;;;9.95;;
51806;SDS011;37865;51.304;9.536;2023-08-21T04:39:14;21.33;;;11.40;;
51806;SDS011;37865;51.304;9.536;2023-08-21T04:41:39;11.77;;;10.43;;
51806;SDS011;37865;51.304;9.536;2023-08-21T04:44:05;15.50;;;10.93;;
51806;SDS011;37865;51.304;9.536;2023-08-21T04:46:30;28.92;;;11.68;;
51806;SDS011;37865;51.304;9.536;2023-08-21T04:48:55;17.50;;;10.32;;
51806;SDS011;37865;51.304;9.536;2023-08-21T04:51:21;12.10;;;10.65;;
51806;SDS011;37865;51.304;9.536;2023-08-21T04:53:46;12.13;;;9.65;;
51806;SDS011;37865;51.304;9.536;2023-08-21T04:56:11;16.65;;;11.32;;
51806;SDS011;37865;51.304;9.536;2023-08-21T04:58:37;17.67;;;12.10;;
51806;SDS011;37865;51.304;9.536;2023-08-21T05:01:04;16.08;;;10.65;;
51806;SDS011;37865;51.304;9.536;2023-08-21T05:03:29;17.38;;;11.13;;
51806;SDS011;37865;51.304;9.536;2023-08-21T05:05:55;14.48;;;10.52;;
51806;SDS011;37865;51.304;9.536;2023-08-21T05:08:24;13.13;;;11.68;;
51806;SDS011;37865;51.304;9.536;2023-08-21T05:10:54;17.10;;;11.18;;
51806;SDS011;37865;51.304;9.536;2023-08-21T05:13:21;14.60;;;7.55;;
51806;SDS011;37865;51.304;9.536;2023-08-21T05:15:50;11.85;;;8.45;;
51806;SDS011;37865;51.304;9.536;2023-08-21T05:18:17;11.57;;;7.47;;
51806;SDS011;37865;51.304;9.536;2023-08-21T05:20:42;14.85;;;8.50;;
51806;SDS011;37865;51.304;9.536;2023-08-21T05:23:07;19.00;;;7.47;;
51806;SDS011;37865;51.304;9.536;2023-08-21T05:25:33;12.02;;;6.93;;
51806;SDS011;37865;51.304;9.536;2023-08-21T05:27:58;8.98;;;7.28;;
51806;SDS011;37865;51.304;9.536;2023-08-21T05:30:23;14.65;;;8.27;;
51806;SDS011;37865;51.304;9.536;2023-08-21T05:32:50;13.27;;;6.78;;
51806;SDS011;37865;51.304;9.536;2023-08-21T05:35:15;11.15;;;7.45;;
51806;SDS011;37865;51.304;9.536;2023-08-21T05:37:40;9.35;;;7.00;;
51806;SDS011;37865;51.304;9.536;2023-08-21T05:40:06;8.95;;;5.53;;
51806;SDS011;37865;51.304;9.536;2023-08-21T05:42:32;11.35;;;6.72;;
51806;SDS011;37865;51.304;9.536;2023-08-21T05:44:58;15.15;;;7.25;;
51806;SDS011;37865;51.304;9.536;2023-08-21T05:47:23;10.32;;;5.38;;
51806;SDS011;37865;51.304;9.536;2023-08-21T05:49:49;9.02;;;5.82;;
51806;SDS011;37865;51.304;9.536;2023-08-21T05:52:15;6.35;;;5.70;;
51806;SDS011;37865;51.304;9.536;2023-08-21T05:54:40;7.15;;;5.72;;
51806;SDS011;37865;51.304;9.536;2023-08-21T05:57:05;8.63;;;5.95;;
51806;SDS011;37865;51.304;9.536;2023-08-21T05:59:31;19.52;;;7.75;;
51806;SDS011;37865;51.304;9.536;2023-08-21T06:01:57;10.95;;;6.00;;
51806;SDS011;37865;51.304;9.536;2023-08-21T06:04:23;7.40;;;5.78;;
51806;SDS011;37865;51.304;9.536;2023-08-21T06:06:49;8.82;;;5.95;;
51806;SDS011;37865;51.304;9.536;2023-08-21T06:09:14;14.85;;;7.35;;
51806;SDS011;37865;51.304;9.536;2023-08-21T06:11:41;7.40;;;5.53;;
51806;SDS011;37865;51.304;9.536;2023-08-21T06:14:06;17.40;;;6.25;;
51806;SDS011;37865;51.304;9.536;2023-08-21T06:16:31;13.93;;;5.90;;
51806;SDS011;37865;51.304;9.536;2023-08-21T06:18:57;7.75;;;5.35;;
51806;SDS011;37865;51.304;9.536;2023-08-21T06:21:22;9.60;;;5.45;;
51806;SDS011;37865;51.304;9.536;2023-08-21T06:23:47;10.77;;;5.28;;
51806;SDS011;37865;51.304;9.536;2023-08-21T06:26:12;8.80;;;5.30;;
51806;SDS011;37865;51.304;9.536;2023-08-21T06:28:38;8.23;;;5.57;;
51806;SDS011;37865;51.304;9.536;2023-08-21T06:31:03;6.72;;;4.35;;
51806;SDS011;37865;51.304;9.536;2023-08-21T06:33:32;4.20;;;3.67;;
51806;SDS011;37865;51.304;9.536;2023-08-21T06:35:57;15.05;;;4.43;;
51806;SDS011;37865;51.304;9.536;2023-08-21T06:38:23;21.33;;;4.47;;
51806;SDS011;37865;51.304;9.536;2023-08-21T06:40:48;7.20;;;4.55;;
51806;SDS011;37865;51.304;9.536;2023-08-21T06:43:13;8.98;;;4.57;;
51806;SDS011;37865;51.304;9.536;2023-08-21T06:45:39;9.43;;;3.70;;
51806;SDS011;37865;51.304;9.536;2023-08-21T06:48:04;6.05;;;4.20;;
51806;SDS011;37865;51.304;9.536;2023-08-21T06:50:30;9.23;;;5.68;;
51806;SDS011;37865;51.304;9.536;2023-08-21T06:52:55;10.07;;;4.43;;
51806;SDS011;37865;51.304;9.536;2023-08-21T06:55:21;6.32;;;3.67;;
51806;SDS011;37865;51.304;9.536;2023-08-21T06:57:46;14.38;;;4.63;;
51806;SDS011;37865;51.304;9.536;2023-08-21T07:00:11;11.00;;;4.30;;
51806;SDS011;37865;51.304;9.536;2023-08-21T07:02:37;7.53;;;4.15;;
51806;SDS011;37865;51.304;9.536;2023-08-21T07:05:03;5.53;;;3.03;;
51806;SDS011;37865;51.304;9.536;2023-08-21T07:07:28;6.10;;;4.57;;
51806;SDS011;37865;51.304;9.536;2023-08-21T07:09:53;8.38;;;4.75;;
51806;SDS011;37865;51.304;9.536;2023-08-21T07:12:19;9.50;;;4.68;;
51806;SDS011;37865;51.304;9.536;2023-08-21T07:14:44;11.13;;;4.45;;
51806;SDS011;37865;51.304;9.536;2023-08-21T07:17:09;15.20;;;4.38;;
51806;SDS011;37865;51.304;9.536;2023-08-21T07:19:35;6.40;;;5.00;;
51806;SDS011;37865;51.304;9.536;2023-08-21T07:22:00;7.28;;;4.28;;
51806;SDS011;37865;51.304;9.536;2023-08-21T07:24:25;10.02;;;4.70;;
51806;SDS011;37865;51.304;9.536;2023-08-21T07:26:51;10.68;;;5.05;;
51806;SDS011;37865;51.304;9.536;2023-08-21T07:29:16;5.13;;;3.78;;
51806;SDS011;37865;51.304;9.536;2023-08-21T07:31:41;7.95;;;4.97;;
51806;SDS011;37865;51.304;9.536;2023-08-21T07:34:07;11.63;;;4.28;;
51806;SDS011;37865;51.304;9.536;2023-08-21T07:36:33;6.25;;;4.57;;
51806;SDS011;37865;51.304;9.536;2023-08-21T07:38:58;5.55;;;3.40;;
51806;SDS011;37865;51.304;9.536;2023-08-21T07:41:23;5.63;;;3.75;;
51806;SDS011;37865;51.304;9.536;2023-08-21T07:43:49;11.02;;;3.97;;
51806;SDS011;37865;51.304;9.536;2023-08-21T07:46:14;7.93;;;3.95;;
51806;SDS011;37865;51.304;9.536;2023-08-21T07:48:43;5.55;;;3.38;;
51806;SDS011;37865;51.304;9.536;2023-08-21T07:51:12;15.07;;;5.22;;
51806;SDS011;37865;51.304;9.536;2023-08-21T07:53:38;19.13;;;4.18;;
51806;SDS011;37865;51.304;9.536;2023-08-21T07:56:03;9.73;;;3.67;;
51806;SDS011;37865;51.304;9.536;2023-08-21T07:58:29;10.02;;;4.32;;
51806;SDS011;37865;51.304;9.536;2023-08-21T08:00:55;10.23;;;3.58;;
51806;SDS011;37865;51.304;9.536;2023-08-21T08:03:21;7.97;;;3.25;;
51806;SDS011;37865;51.304;9.536;2023-08-21T08:05:46;16.90;;;4.07;;
51806;SDS011;37865;51.304;9.536;2023-08-21T08:08:11;15.45;;;4.43;;
51806;SDS011;37865;51.304;9.536;2023-08-21T08:10:37;6.00;;;3.58;;
51806;SDS011;37865;51.304;9.536;2023-08-21T08:13:04;6.13;;;3.88;;
51806;SDS011;37865;51.304;9.536;2023-08-21T08:15:30;4.45;;;3.47;;
51806;SDS011;37865;51.304;9.536;2023-08-21T08:17:55;7.03;;;2.97;;
51806;SDS011;37865;51.304;9.536;2023-08-21T08:20:22;7.00;;;4.20;;
51806;SDS011;37865;51.304;9.536;2023-08-21T08:22:47;12.50;;;5.05;;
51806;SDS011;37865;51.304;9.536;2023-08-21T08:25:12;16.70;;;3.67;;
51806;SDS011;37865;51.304;9.536;2023-08-21T08:27:39;13.65;;;3.45;;
51806;SDS011;37865;51.304;9.536;2023-08-21T08:30:04;5.28;;;2.72;;
51806;SDS011;37865;51.304;9.536;2023-08-21T08:32:30;6.47;;;3.15;;
51806;SDS011;37865;51.304;9.536;2023-08-21T08:34:56;11.88;;;3.28;;
51806;SDS011;37865;51.304;9.536;2023-08-21T08:37:21;14.63;;;3.63;;
51806;SDS011;37865;51.304;9.536;2023-08-21T08:39:47;5.85;;;3.13;;
51806;SDS011;37865;51.304;9.536;2023-08-21T08:42:12;8.38;;;3.47;;
51806;SDS011;37865;51.304;9.536;2023-08-21T08:44:39;7.15;;;3.17;;
51806;SDS011;37865;51.304;9.536;2023-08-21T08:47:06;9.13;;;3.38;;
51806;SDS011;37865;51.304;9.536;2023-08-21T08:49:32;7.70;;;3.65;;
51806;SDS011;37865;51.304;9.536;2023-08-21T08:51:58;8.65;;;3.30;;
51806;SDS011;37865;51.304;9.536;2023-08-21T08:54:24;11.30;;;4.50;;
51806;SDS011;37865;51.304;9.536;2023-08-21T08:56:50;4.15;;;3.50;;
51806;SDS011;37865;51.304;9.536;2023-08-21T08:59:16;12.07;;;4.13;;
51806;SDS011;37865;51.304;9.536;2023-08-21T09:01:42;16.10;;;4.55;;
51806;SDS011;37865;51.304;9.536;2023-08-21T09:04:07;7.70;;;3.45;;
51806;SDS011;37865;51.304;9.536;2023-08-21T09:06:33;7.32;;;4.05;;
51806;SDS011;37865;51.304;9.536;2023-08-21T09:08:59;7.20;;;3.40;;
51806;SDS011;37865;51.304;9.536;2023-08-21T09:11:24;5.60;;;3.08;;
51806;SDS011;37865;51.304;9.536;2023-08-21T09:13:50;9.98;;;4.43;;
51806;SDS011;37865;51.304;9.536;2023-08-21T09:16:17;4.72;;;3.20;;
51806;SDS011;37865;51.304;9.536;2023-08-21T09:18:47;8.93;;;3.92;;
51806;SDS011;37865;51.304;9.536;2023-08-21T09:21:20;12.82;;;3.88;;
51806;SDS011;37865;51.304;9.536;2023-08-21T09:23:46;8.82;;;4.47;;
51806;SDS011;37865;51.304;9.536;2023-08-21T09:26:18;12.98;;;3.53;;
51806;SDS011;37865;51.304;9.536;2023-08-21T09:28:45;8.25;;;4.53;;
51806;SDS011;37865;51.304;9.536;2023-08-21T09:31:11;6.78;;;3.63;;
51806;SDS011;37865;51.304;9.536;2023-08-21T09:33:37;8.40;;;4.38;;
51806;SDS011;37865;51.304;9.536;2023-08-21T09:36:02;9.77;;;4.50;;
51806;SDS011;37865;51.304;9.536;2023-08-21T09:38:29;8.30;;;3.60;;
51806;SDS011;37865;51.304;9.536;2023-08-21T09:40:55;4.22;;;3.72;;
51806;SDS011;37865;51.304;9.536;2023-08-21T09:43:21;6.95;;;4.22;;
51806;SDS011;37865;51.304;9.536;2023-08-21T09:45:48;6.50;;;4.20;;
51806;SDS011;37865;51.304;9.536;2023-08-21T09:48:15;7.43;;;4.85;;
51806;SDS011;37865;51.304;9.536;2023-08-21T09:50:41;10.27;;;4.93;;
51806;SDS011;37865;51.304;9.536;2023-08-21T09:53:06;3.75;;;3.22;;
51806;SDS011;37865;51.304;9.536;2023-08-21T09:55:33;8.15;;;4.25;;
51806;SDS011;37865;51.304;9.536;2023-08-21T09:57:59;5.80;;;3.65;;
51806;SDS011;37865;51.304;9.536;2023-08-21T10:00:34;13.25;;;3.38;;
51806;SDS011;37865;51.304;9.536;2023-08-21T10:03:04;3.70;;;3.00;;
51806;SDS011;37865;51.304;9.536;2023-08-21T10:05:32;6.00;;;4.05;;
51806;SDS011;37865;51.304;9.536;2023-08-21T10:08:02;7.93;;;4.40;;
51806;SDS011;37865;51.304;9.536;2023-08-21T10:10:32;6.00;;;4.18;;
51806;SDS011;37865;51.304;9.536;2023-08-21T10:12:59;4.22;;;3.83;;
51806;SDS011;37865;51.304;9.536;2023-08-21T10:15:25;5.28;;;4.30;;
51806;SDS011;37865;51.304;9.536;2023-08-21T10:17:53;11.07;;;4.05;;
51806;SDS011;37865;51.304;9.536;2023-08-21T10:20:22;3.50;;;3.17;;
51806;SDS011;37865;51.304;9.536;2023-08-21T10:22:49;20.38;;;4.32;;
51806;SDS011;37865;51.304;9.536;2023-08-21T10:27:52;5.72;;;3.75;;
51806;SDS011;37865;51.304;9.536;2023-08-21T10:30:20;5.47;;;4.65;;
51806;SDS011;37865;51.304;9.536;2023-08-21T10:32:51;5.82;;;3.83;;
51806;SDS011;37865;51.304;9.536;2023-08-21T10:35:21;7.72;;;4.40;;
51806;SDS011;37865;51.304;9.536;2023-08-21T10:38:10;7.05;;;3.88;;
51806;SDS011;37865;51.304;9.536;2023-08-21T10:40:36;10.82;;;3.50;;
51806;SDS011;37865;51.304;9.536;2023-08-21T10:43:03;5.20;;;4.10;;
51806;SDS011;37865;51.304;9.536;2023-08-21T10:45:54;6.85;;;4.35;;
51806;SDS011;37865;51.304;9.536;2023-08-21T10:48:22;12.40;;;4.93;;
51806;SDS011;37865;51.304;9.536;2023-08-21T10:50:48;18.67;;;4.00;;
51806;SDS011;37865;51.304;9.536;2023-08-21T10:53:13;5.35;;;4.28;;
51806;SDS011;37865;51.304;9.536;2023-08-21T10:55:39;8.73;;;5.22;;
51806;SDS011;37865;51.304;9.536;2023-08-21T10:58:04;8.63;;;6.38;;
51806;SDS011;37865;51.304;9.536;2023-08-21T11:00:29;6.10;;;4.80;;
51806;SDS011;37865;51.304;9.536;2023-08-21T11:02:55;6.20;;;4.65;;
51806;SDS011;37865;51.304;9.536;2023-08-21T11:05:20;6.75;;;4.50;;
51806;SDS011;37865;51.304;9.536;2023-08-21T11:07:46;9.98;;;5.43;;
51806;SDS011;37865;51.304;9.536;2023-08-21T11:10:16;4.50;;;3.75;;
51806;SDS011;37865;51.304;9.536;2023-08-21T11:12:53;6.05;;;3.90;;
51806;SDS011;37865;51.304;9.536;2023-08-21T11:15:24;5.63;;;4.13;;
51806;SDS011;37865;51.304;9.536;2023-08-21T11:17:57;9.38;;;4.30;;
51806;SDS011;37865;51.304;9.536;2023-08-21T11:20:30;9.60;;;3.83;;
51806;SDS011;37865;51.304;9.536;2023-08-21T11:22:57;5.88;;;4.18;;
51806;SDS011;37865;51.304;9.536;2023-08-21T11:25:31;21.27;;;4.35;;
51806;SDS011;37865;51.304;9.536;2023-08-21T11:27:58;4.50;;;4.10;;
51806;SDS011;37865;51.304;9.536;2023-08-21T11:30:23;7.15;;;4.47;;
51806;SDS011;37865;51.304;9.536;2023-08-21T11:33:04;6.70;;;3.75;;
51806;SDS011;37865;51.304;9.536;2023-08-21T11:35:30;8.70;;;3.83;;
51806;SDS011;37865;51.304;9.536;2023-08-21T11:37:55;5.93;;;3.60;;
51806;SDS011;37865;51.304;9.536;2023-08-21T11:40:20;6.97;;;3.47;;
51806;SDS011;37865;51.304;9.536;2023-08-21T11:42:46;4.20;;;3.28;;
51806;SDS011;37865;51.304;9.536;2023-08-21T11:45:11;8.02;;;4.75;;
51806;SDS011;37865;51.304;9.536;2023-08-21T11:47:36;4.93;;;3.38;;
51806;SDS011;37865;51.304;9.536;2023-08-21T11:50:02;4.95;;;3.13;;
51806;SDS011;37865;51.304;9.536;2023-08-21T11:52:29;4.10;;;3.70;;
51806;SDS011;37865;51.304;9.536;2023-08-21T11:54:56;8.07;;;3.67;;
51806;SDS011;37865;51.304;9.536;2023-08-21T11:57:23;8.93;;;4.50;;
51806;SDS011;37865;51.304;9.536;2023-08-21T11:59:52;5.88;;;3.70;;
51806;SDS011;37865;51.304;9.536;2023-08-21T12:02:25;16.77;;;3.83;;
51806;SDS011;37865;51.304;9.536;2023-08-21T12:04:53;7.70;;;3.42;;
51806;SDS011;37865;51.304;9.536;2023-08-21T12:07:19;10.25;;;3.92;;
51806;SDS011;37865;51.304;9.536;2023-08-21T12:09:47;9.68;;;3.95;;
51806;SDS011;37865;51.304;9.536;2023-08-21T12:12:16;11.20;;;3.95;;
51806;SDS011;37865;51.304;9.536;2023-08-21T12:14:42;4.10;;;3.70;;
51806;SDS011;37865;51.304;9.536;2023-08-21T12:17:07;4.00;;;3.03;;
51806;SDS011;37865;51.304;9.536;2023-08-21T12:19:32;4.37;;;3.07;;
51806;SDS011;37865;51.304;9.536;2023-08-21T12:21:58;6.47;;;4.05;;
51806;SDS011;37865;51.304;9.536;2023-08-21T12:24:23;4.78;;;4.13;;
51806;SDS011;37865;51.304;9.536;2023-08-21T12:26:49;3.92;;;3.63;;
51806;SDS011;37865;51.304;9.536;2023-08-21T12:29:14;3.50;;;3.08;;
51806;SDS011;37865;51.304;9.536;2023-08-21T12:31:40;5.00;;;3.00;;
51806;SDS011;37865;51.304;9.536;2023-08-21T12:34:05;3.50;;;3.03;;
51806;SDS011;37865;51.304;9.536;2023-08-21T12:36:30;4.85;;;3.53;;
51806;SDS011;37865;51.304;9.536;2023-08-21T12:38:59;5.20;;;3.45;;
51806;SDS011;37865;51.304;9.536;2023-08-21T12:41:24;4.23;;;3.83;;
51806;SDS011;37865;51.304;9.536;2023-08-21T12:43:50;5.00;;;4.50;;
51806;SDS011;37865;51.304;9.536;2023-08-21T12:46:15;5.07;;;3.40;;
51806;SDS011;37865;51.304;9.536;2023-08-21T12:48:40;7.22;;;3.45;;
51806;SDS011;37865;51.304;9.536;2023-08-21T12:51:06;4.30;;;3.78;;
51806;SDS011;37865;51.304;9.536;2023-08-21T12:53:31;4.72;;;3.38;;
51806;SDS011;37865;51.304;9.536;2023-08-21T12:55:56;3.92;;;2.83;;
51806;SDS011;37865;51.304;9.536;2023-08-21T12:58:22;4.75;;;3.45;;
51806;SDS011;37865;51.304;9.536;2023-08-21T13:00:47;3.93;;;3.53;;
51806;SDS011;37865;51.304;9.536;2023-08-21T13:03:13;3.88;;;3.30;;
51806;SDS011;37865;51.304;9.536;2023-08-21T13:05:38;6.35;;;2.70;;
51806;SDS011;37865;51.304;9.536;2023-08-21T13:08:03;4.70;;;3.15;;
51806;SDS011;37865;51.304;9.536;2023-08-21T13:10:29;5.00;;;3.25;;
51806;SDS011;37865;51.304;9.536;2023-08-21T13:12:54;4.65;;;3.80;;
51806;SDS011;37865;51.304;9.536;2023-08-21T13:15:19;6.97;;;3.67;;
51806;SDS011;37865;51.304;9.536;2023-08-21T13:17:45;3.97;;;3.47;;
51806;SDS011;37865;51.304;9.536;2023-08-21T13:20:10;7.75;;;3.45;;
51806;SDS011;37865;51.304;9.536;2023-08-21T13:22:45;4.30;;;3.88;;
51806;SDS011;37865;51.304;9.536;2023-08-21T13:25:12;3.90;;;2.75;;
51806;SDS011;37865;51.304;9.536;2023-08-21T13:27:37;3.38;;;3.08;;
51806;SDS011;37865;51.304;9.536;2023-08-21T13:30:02;4.75;;;3.65;;
51806;SDS011;37865;51.304;9.536;2023-08-21T13:32:30;7.47;;;3.90;;
51806;SDS011;37865;51.304;9.536;2023-08-21T13:34:56;5.00;;;3.58;;
51806;SDS011;37865;51.304;9.536;2023-08-21T13:37:21;4.97;;;3.08;;
51806;SDS011;37865;51.304;9.536;2023-08-21T13:39:47;4.57;;;3.70;;
51806;SDS011;37865;51.304;9.536;2023-08-21T13:42:12;6.03;;;4.10;;
51806;SDS011;37865;51.304;9.536;2023-08-21T13:44:38;12.05;;;3.60;;
51806;SDS011;37865;51.304;9.536;2023-08-21T13:47:04;8.90;;;3.05;;
51806;SDS011;37865;51.304;9.536;2023-08-21T13:49:29;3.85;;;3.42;;
51806;SDS011;37865;51.304;9.536;2023-08-21T13:51:54;3.63;;;2.80;;
51806;SDS011;37865;51.304;9.536;2023-08-21T13:54:20;4.57;;;3.70;;
51806;SDS011;37865;51.304;9.536;2023-08-21T13:56:45;3.70;;;3.22;;
51806;SDS011;37865;51.304;9.536;2023-08-21T13:59:10;3.97;;;3.57;;
51806;SDS011;37865;51.304;9.536;2023-08-21T14:01:35;5.27;;;3.60;;
51806;SDS011;37865;51.304;9.536;2023-08-21T14:04:01;6.45;;;3.92;;
51806;SDS011;37865;51.304;9.536;2023-08-21T14:06:27;3.10;;;2.85;;
51806;SDS011;37865;51.304;9.536;2023-08-21T14:08:54;11.00;;;3.60;;
51806;SDS011;37865;51.304;9.536;2023-08-21T14:11:19;3.67;;;2.90;;
51806;SDS011;37865;51.304;9.536;2023-08-21T14:13:45;7.47;;;3.60;;
51806;SDS011;37865;51.304;9.536;2023-08-21T14:16:10;5.07;;;2.95;;
51806;SDS011;37865;51.304;9.536;2023-08-21T14:18:36;5.88;;;3.05;;
51806;SDS011;37865;51.304;9.536;2023-08-21T14:21:01;4.55;;;3.70;;
51806;SDS011;37865;51.304;9.536;2023-08-21T14:23:27;5.30;;;2.97;;
51806;SDS011;37865;51.304;9.536;2023-08-21T14:25:52;7.65;;;3.75;;
51806;SDS011;37865;51.304;9.536;2023-08-21T14:28:17;5.32;;;3.10;;
51806;SDS011;37865;51.304;9.536;2023-08-21T14:30:43;6.03;;;3.80;;
51806;SDS011;37865;51.304;9.536;2023-08-21T14:33:10;5.82;;;4.38;;
51806;SDS011;37865;51.304;9.536;2023-08-21T14:35:35;5.53;;;3.40;;
51806;SDS011;37865;51.304;9.536;2023-08-21T14:38:01;4.88;;;4.35;;
51806;SDS011;37865;51.304;9.536;2023-08-21T14:40:27;6.70;;;3.28;;
51806;SDS011;37865;51.304;9.536;2023-08-21T14:42:52;6.38;;;4.03;;